sensor_id;sensor_type;location;lat;lon;timestamp;P1;durP1;ratioP1;P2;durP2;ratioP2
6031;SDS011;3044;43.232;27.972;2022-08-02T00:00:54;4.90;;;4.60;;
6031;SDS011;3044;43.232;27.972;2022-08-02T00:03:21;4.93;;;4.40;;
6031;SDS011;3044;43.232;27.972;2022-08-02T00:05:49;5.23;;;4.73;;
6031;SDS011;3044;43.232;27.972;2022-08-02T00:08:16;4.87;;;4.23;;
6031;SDS011;3044;43.232;27.972;2022-08-02T00:10:43;4.50;;;4.20;;
6031;SDS011;3044;43.232;27.972;2022-08-02T00:13:12;4.07;;;3.77;;
6031;SDS011;3044;43.232;27.972;2022-08-02T00:15:39;4.30;;;4.03;;
6031;SDS011;3044;43.232;27.972;2022-08-02T00:18:06;7.67;;;3.90;;
6031;SDS011;3044;43.232;27.972;2022-08-02T00:20:33;7.27;;;4.00;;
6031;SDS011;3044;43.232;27.972;2022-08-02T00:23:00;4.30;;;3.97;;
6031;SDS011;3044;43.232;27.972;2022-08-02T00:25:28;4.57;;;4.17;;
6031;SDS011;3044;43.232;27.972;2022-08-02T00:27:55;3.87;;;3.57;;
6031;SDS011;3044;43.232;27.972;2022-08-02T00:30:23;3.60;;;3.40;;
6031;SDS011;3044;43.232;27.972;2022-08-02T00:32:51;4.60;;;4.30;;
6031;SDS011;3044;43.232;27.972;2022-08-02T00:35:18;3.70;;;3.30;;
6031;SDS011;3044;43.232;27.972;2022-08-02T00:37:45;4.37;;;4.10;;
6031;SDS011;3044;43.232;27.972;2022-08-02T00:40:12;3.80;;;3.50;;
6031;SDS011;3044;43.232;27.972;2022-08-02T00:42:39;3.43;;;3.10;;
6031;SDS011;3044;43.232;27.972;2022-08-02T00:45:08;4.63;;;4.23;;
6031;SDS011;3044;43.232;27.972;2022-08-02T00:47:37;3.93;;;3.73;;
6031;SDS011;3044;43.232;27.972;2022-08-02T00:50:04;4.17;;;3.87;;
6031;SDS011;3044;43.232;27.972;2022-08-02T00:52:32;4.43;;;4.07;;
6031;SDS011;3044;43.232;27.972;2022-08-02T00:54:59;4.23;;;3.60;;
6031;SDS011;3044;43.232;27.972;2022-08-02T00:57:26;4.50;;;4.20;;
6031;SDS011;3044;43.232;27.972;2022-08-02T00:59:53;4.03;;;3.80;;
6031;SDS011;3044;43.232;27.972;2022-08-02T01:02:20;3.90;;;3.47;;
6031;SDS011;3044;43.232;27.972;2022-08-02T01:04:49;4.30;;;4.00;;
6031;SDS011;3044;43.232;27.972;2022-08-02T01:07:16;4.03;;;3.73;;
6031;SDS011;3044;43.232;27.972;2022-08-02T01:09:44;4.53;;;4.23;;
6031;SDS011;3044;43.232;27.972;2022-08-02T01:12:11;7.23;;;4.30;;
6031;SDS011;3044;43.232;27.972;2022-08-02T01:14:39;4.73;;;4.33;;
6031;SDS011;3044;43.232;27.972;2022-08-02T01:17:08;4.03;;;3.73;;
6031;SDS011;3044;43.232;27.972;2022-08-02T01:19:42;4.80;;;4.40;;
6031;SDS011;3044;43.232;27.972;2022-08-02T01:22:26;4.77;;;4.10;;
6031;SDS011;3044;43.232;27.972;2022-08-02T01:25:14;4.10;;;3.90;;
6031;SDS011;3044;43.232;27.972;2022-08-02T01:28:02;4.40;;;4.00;;
6031;SDS011;3044;43.232;27.972;2022-08-02T01:30:42;4.67;;;4.37;;
6031;SDS011;3044;43.232;27.972;2022-08-02T01:33:14;5.47;;;4.00;;
6031;SDS011;3044;43.232;27.972;2022-08-02T01:35:44;4.73;;;4.33;;
6031;SDS011;3044;43.232;27.972;2022-08-02T01:38:19;4.87;;;4.30;;
6031;SDS011;3044;43.232;27.972;2022-08-02T01:40:49;5.10;;;4.70;;
6031;SDS011;3044;43.232;27.972;2022-08-02T01:43:19;4.57;;;4.27;;
6031;SDS011;3044;43.232;27.972;2022-08-02T01:45:48;4.13;;;3.83;;
6031;SDS011;3044;43.232;27.972;2022-08-02T01:48:18;4.43;;;4.20;;
6031;SDS011;3044;43.232;27.972;2022-08-02T01:50:47;4.60;;;4.20;;
6031;SDS011;3044;43.232;27.972;2022-08-02T01:53:17;4.70;;;4.40;;
6031;SDS011;3044;43.232;27.972;2022-08-02T01:55:47;4.73;;;4.43;;
6031;SDS011;3044;43.232;27.972;2022-08-02T01:58:20;4.83;;;4.53;;
6031;SDS011;3044;43.232;27.972;2022-08-02T02:00:50;5.13;;;4.27;;
6031;SDS011;3044;43.232;27.972;2022-08-02T02:03:20;6.33;;;5.20;;
6031;SDS011;3044;43.232;27.972;2022-08-02T02:05:49;5.03;;;4.60;;
6031;SDS011;3044;43.232;27.972;2022-08-02T02:08:20;5.30;;;4.30;;
6031;SDS011;3044;43.232;27.972;2022-08-02T02:10:51;4.23;;;3.93;;
6031;SDS011;3044;43.232;27.972;2022-08-02T02:13:22;5.43;;;3.77;;
6031;SDS011;3044;43.232;27.972;2022-08-02T02:15:51;4.83;;;4.43;;
6031;SDS011;3044;43.232;27.972;2022-08-02T02:18:22;4.50;;;3.90;;
6031;SDS011;3044;43.232;27.972;2022-08-02T02:20:50;5.30;;;4.90;;
6031;SDS011;3044;43.232;27.972;2022-08-02T02:23:18;4.87;;;4.33;;
6031;SDS011;3044;43.232;27.972;2022-08-02T02:25:45;5.40;;;5.00;;
6031;SDS011;3044;43.232;27.972;2022-08-02T02:28:13;4.67;;;4.37;;
6031;SDS011;3044;43.232;27.972;2022-08-02T02:30:50;5.50;;;5.00;;
6031;SDS011;3044;43.232;27.972;2022-08-02T02:33:20;5.70;;;5.00;;
6031;SDS011;3044;43.232;27.972;2022-08-02T02:35:50;6.50;;;4.40;;
6031;SDS011;3044;43.232;27.972;2022-08-02T02:38:19;5.87;;;5.07;;
6031;SDS011;3044;43.232;27.972;2022-08-02T02:40:47;5.70;;;5.20;;
6031;SDS011;3044;43.232;27.972;2022-08-02T02:43:15;6.67;;;5.20;;
6031;SDS011;3044;43.232;27.972;2022-08-02T02:45:43;5.43;;;5.03;;
6031;SDS011;3044;43.232;27.972;2022-08-02T02:48:13;6.73;;;5.27;;
6031;SDS011;3044;43.232;27.972;2022-08-02T02:50:42;8.60;;;5.37;;
6031;SDS011;3044;43.232;27.972;2022-08-02T02:53:11;6.03;;;5.50;;
6031;SDS011;3044;43.232;27.972;2022-08-02T02:55:39;4.90;;;4.60;;
6031;SDS011;3044;43.232;27.972;2022-08-02T02:58:07;6.40;;;5.90;;
6031;SDS011;3044;43.232;27.972;2022-08-02T03:00:35;6.60;;;4.87;;
6031;SDS011;3044;43.232;27.972;2022-08-02T03:03:22;5.70;;;5.30;;
6031;SDS011;3044;43.232;27.972;2022-08-02T03:05:51;5.70;;;5.30;;
6031;SDS011;3044;43.232;27.972;2022-08-02T03:08:18;7.00;;;5.53;;
6031;SDS011;3044;43.232;27.972;2022-08-02T03:10:45;5.63;;;5.13;;
6031;SDS011;3044;43.232;27.972;2022-08-02T03:13:13;5.47;;;4.97;;
6031;SDS011;3044;43.232;27.972;2022-08-02T03:15:41;9.20;;;5.50;;
6031;SDS011;3044;43.232;27.972;2022-08-02T03:18:09;6.13;;;5.40;;
6031;SDS011;3044;43.232;27.972;2022-08-02T03:20:38;11.23;;;5.10;;
6031;SDS011;3044;43.232;27.972;2022-08-02T03:23:05;6.27;;;5.70;;
6031;SDS011;3044;43.232;27.972;2022-08-02T03:25:32;5.43;;;4.93;;
6031;SDS011;3044;43.232;27.972;2022-08-02T03:27:59;5.43;;;4.80;;
6031;SDS011;3044;43.232;27.972;2022-08-02T03:30:26;9.10;;;5.30;;
6031;SDS011;3044;43.232;27.972;2022-08-02T03:32:53;4.83;;;4.50;;
6031;SDS011;3044;43.232;27.972;2022-08-02T03:35:21;5.87;;;4.83;;
6031;SDS011;3044;43.232;27.972;2022-08-02T03:37:49;6.33;;;5.10;;
6031;SDS011;3044;43.232;27.972;2022-08-02T03:40:19;5.83;;;5.33;;
6031;SDS011;3044;43.232;27.972;2022-08-02T03:42:47;5.47;;;4.93;;
6031;SDS011;3044;43.232;27.972;2022-08-02T03:45:15;7.63;;;5.27;;
6031;SDS011;3044;43.232;27.972;2022-08-02T03:47:43;5.70;;;5.10;;
6031;SDS011;3044;43.232;27.972;2022-08-02T03:50:11;4.97;;;4.50;;
6031;SDS011;3044;43.232;27.972;2022-08-02T03:52:39;5.00;;;4.67;;
6031;SDS011;3044;43.232;27.972;2022-08-02T03:55:09;3.97;;;3.77;;
6031;SDS011;3044;43.232;27.972;2022-08-02T03:57:38;4.83;;;4.27;;
6031;SDS011;3044;43.232;27.972;2022-08-02T04:00:06;5.37;;;4.87;;
6031;SDS011;3044;43.232;27.972;2022-08-02T04:02:34;4.43;;;4.13;;
6031;SDS011;3044;43.232;27.972;2022-08-02T04:05:01;6.90;;;4.27;;
6031;SDS011;3044;43.232;27.972;2022-08-02T04:07:29;5.10;;;4.43;;
6031;SDS011;3044;43.232;27.972;2022-08-02T04:09:56;4.97;;;4.43;;
6031;SDS011;3044;43.232;27.972;2022-08-02T04:12:25;4.67;;;3.87;;
6031;SDS011;3044;43.232;27.972;2022-08-02T04:14:52;10.27;;;4.00;;
6031;SDS011;3044;43.232;27.972;2022-08-02T04:17:19;5.60;;;4.20;;
6031;SDS011;3044;43.232;27.972;2022-08-02T04:19:49;3.60;;;3.30;;
6031;SDS011;3044;43.232;27.972;2022-08-02T04:22:20;4.43;;;4.03;;
6031;SDS011;3044;43.232;27.972;2022-08-02T04:24:53;4.20;;;3.90;;
6031;SDS011;3044;43.232;27.972;2022-08-02T04:27:22;4.23;;;3.83;;
6031;SDS011;3044;43.232;27.972;2022-08-02T04:29:52;4.47;;;4.17;;
6031;SDS011;3044;43.232;27.972;2022-08-02T04:32:20;4.47;;;4.07;;
6031;SDS011;3044;43.232;27.972;2022-08-02T04:34:48;4.93;;;4.43;;
6031;SDS011;3044;43.232;27.972;2022-08-02T04:37:15;5.63;;;4.00;;
6031;SDS011;3044;43.232;27.972;2022-08-02T04:39:43;4.23;;;3.93;;
6031;SDS011;3044;43.232;27.972;2022-08-02T04:42:10;7.80;;;4.03;;
6031;SDS011;3044;43.232;27.972;2022-08-02T04:44:48;4.57;;;4.17;;
6031;SDS011;3044;43.232;27.972;2022-08-02T04:47:15;6.60;;;3.93;;
6031;SDS011;3044;43.232;27.972;2022-08-02T04:49:43;4.77;;;4.37;;
6031;SDS011;3044;43.232;27.972;2022-08-02T04:52:10;4.70;;;4.40;;
6031;SDS011;3044;43.232;27.972;2022-08-02T04:54:38;5.30;;;4.83;;
6031;SDS011;3044;43.232;27.972;2022-08-02T04:57:05;4.43;;;4.17;;
6031;SDS011;3044;43.232;27.972;2022-08-02T04:59:46;14.80;;;5.23;;
6031;SDS011;3044;43.232;27.972;2022-08-02T05:02:14;6.13;;;5.53;;
6031;SDS011;3044;43.232;27.972;2022-08-02T05:04:41;5.30;;;4.90;;
6031;SDS011;3044;43.232;27.972;2022-08-02T05:07:09;6.63;;;4.80;;
6031;SDS011;3044;43.232;27.972;2022-08-02T05:09:36;5.00;;;4.50;;
6031;SDS011;3044;43.232;27.972;2022-08-02T05:12:03;14.33;;;5.27;;
6031;SDS011;3044;43.232;27.972;2022-08-02T05:14:30;7.67;;;5.30;;
6031;SDS011;3044;43.232;27.972;2022-08-02T05:16:59;5.80;;;5.30;;
6031;SDS011;3044;43.232;27.972;2022-08-02T05:19:27;5.57;;;5.03;;
6031;SDS011;3044;43.232;27.972;2022-08-02T05:21:54;5.57;;;4.83;;
6031;SDS011;3044;43.232;27.972;2022-08-02T05:24:21;5.97;;;5.00;;
6031;SDS011;3044;43.232;27.972;2022-08-02T05:26:48;5.83;;;5.30;;
6031;SDS011;3044;43.232;27.972;2022-08-02T05:29:16;5.27;;;4.97;;
6031;SDS011;3044;43.232;27.972;2022-08-02T05:31:43;7.60;;;5.73;;
6031;SDS011;3044;43.232;27.972;2022-08-02T05:34:12;6.83;;;5.40;;
6031;SDS011;3044;43.232;27.972;2022-08-02T05:36:39;6.40;;;5.80;;
6031;SDS011;3044;43.232;27.972;2022-08-02T05:39:07;6.13;;;5.33;;
6031;SDS011;3044;43.232;27.972;2022-08-02T05:41:35;6.57;;;5.20;;
6031;SDS011;3044;43.232;27.972;2022-08-02T05:44:02;6.43;;;6.00;;
6031;SDS011;3044;43.232;27.972;2022-08-02T05:46:30;6.20;;;5.60;;
6031;SDS011;3044;43.232;27.972;2022-08-02T05:48:57;8.37;;;5.10;;
6031;SDS011;3044;43.232;27.972;2022-08-02T05:51:27;5.50;;;4.97;;
6031;SDS011;3044;43.232;27.972;2022-08-02T05:54:02;5.50;;;4.83;;
6031;SDS011;3044;43.232;27.972;2022-08-02T05:56:37;6.50;;;5.90;;
6031;SDS011;3044;43.232;27.972;2022-08-02T05:59:15;5.00;;;4.57;;
6031;SDS011;3044;43.232;27.972;2022-08-02T06:01:48;5.43;;;5.00;;
6031;SDS011;3044;43.232;27.972;2022-08-02T06:04:23;5.70;;;5.20;;
6031;SDS011;3044;43.232;27.972;2022-08-02T06:06:54;5.33;;;4.83;;
6031;SDS011;3044;43.232;27.972;2022-08-02T06:09:24;7.53;;;5.13;;
6031;SDS011;3044;43.232;27.972;2022-08-02T06:11:51;7.67;;;4.93;;
6031;SDS011;3044;43.232;27.972;2022-08-02T06:14:19;6.20;;;5.70;;
6031;SDS011;3044;43.232;27.972;2022-08-02T06:16:47;5.20;;;4.80;;
6031;SDS011;3044;43.232;27.972;2022-08-02T06:19:17;5.53;;;5.03;;
6031;SDS011;3044;43.232;27.972;2022-08-02T06:21:45;6.23;;;5.63;;
6031;SDS011;3044;43.232;27.972;2022-08-02T06:24:17;6.47;;;4.90;;
6031;SDS011;3044;43.232;27.972;2022-08-02T06:26:45;5.73;;;5.17;;
6031;SDS011;3044;43.232;27.972;2022-08-02T06:29:16;8.33;;;5.60;;
6031;SDS011;3044;43.232;27.972;2022-08-02T06:31:46;7.80;;;5.83;;
6031;SDS011;3044;43.232;27.972;2022-08-02T06:34:15;9.20;;;6.17;;
6031;SDS011;3044;43.232;27.972;2022-08-02T06:36:46;8.03;;;5.40;;
6031;SDS011;3044;43.232;27.972;2022-08-02T06:39:18;5.90;;;5.40;;
6031;SDS011;3044;43.232;27.972;2022-08-02T06:41:53;5.73;;;5.23;;
6031;SDS011;3044;43.232;27.972;2022-08-02T06:44:23;5.67;;;5.17;;
6031;SDS011;3044;43.232;27.972;2022-08-02T06:46:51;4.83;;;4.50;;
6031;SDS011;3044;43.232;27.972;2022-08-02T06:49:18;6.10;;;5.53;;
6031;SDS011;3044;43.232;27.972;2022-08-02T06:51:45;6.30;;;4.50;;
6031;SDS011;3044;43.232;27.972;2022-08-02T06:54:12;4.87;;;4.57;;
6031;SDS011;3044;43.232;27.972;2022-08-02T06:56:47;8.10;;;4.70;;
6031;SDS011;3044;43.232;27.972;2022-08-02T06:59:14;8.60;;;4.90;;
6031;SDS011;3044;43.232;27.972;2022-08-02T07:01:42;6.23;;;4.93;;
6031;SDS011;3044;43.232;27.972;2022-08-02T07:04:09;8.00;;;5.03;;
6031;SDS011;3044;43.232;27.972;2022-08-02T07:06:36;5.47;;;5.07;;
6031;SDS011;3044;43.232;27.972;2022-08-02T07:09:03;5.80;;;4.33;;
6031;SDS011;3044;43.232;27.972;2022-08-02T07:11:30;11.23;;;5.20;;
6031;SDS011;3044;43.232;27.972;2022-08-02T07:13:59;6.23;;;4.40;;
6031;SDS011;3044;43.232;27.972;2022-08-02T07:16:26;5.70;;;4.50;;
6031;SDS011;3044;43.232;27.972;2022-08-02T07:18:53;4.63;;;4.33;;
6031;SDS011;3044;43.232;27.972;2022-08-02T07:21:20;11.03;;;4.40;;
6031;SDS011;3044;43.232;27.972;2022-08-02T07:23:48;5.97;;;4.93;;
6031;SDS011;3044;43.232;27.972;2022-08-02T07:26:15;4.57;;;4.33;;
6031;SDS011;3044;43.232;27.972;2022-08-02T07:28:42;5.53;;;4.17;;
6031;SDS011;3044;43.232;27.972;2022-08-02T07:31:11;5.00;;;4.50;;
6031;SDS011;3044;43.232;27.972;2022-08-02T07:33:38;5.50;;;4.10;;
6031;SDS011;3044;43.232;27.972;2022-08-02T07:36:05;7.20;;;3.83;;
6031;SDS011;3044;43.232;27.972;2022-08-02T07:38:34;4.83;;;4.33;;
6031;SDS011;3044;43.232;27.972;2022-08-02T07:41:01;4.77;;;4.47;;
6031;SDS011;3044;43.232;27.972;2022-08-02T07:43:28;5.37;;;4.43;;
6031;SDS011;3044;43.232;27.972;2022-08-02T07:45:55;4.03;;;3.83;;
6031;SDS011;3044;43.232;27.972;2022-08-02T07:48:24;4.63;;;4.17;;
6031;SDS011;3044;43.232;27.972;2022-08-02T07:50:51;3.97;;;3.77;;
6031;SDS011;3044;43.232;27.972;2022-08-02T07:53:18;4.70;;;4.13;;
6031;SDS011;3044;43.232;27.972;2022-08-02T07:55:45;12.30;;;4.67;;
6031;SDS011;3044;43.232;27.972;2022-08-02T07:58:12;4.43;;;4.03;;
6031;SDS011;3044;43.232;27.972;2022-08-02T08:00:40;8.67;;;4.40;;
6031;SDS011;3044;43.232;27.972;2022-08-02T08:03:08;4.80;;;4.40;;
6031;SDS011;3044;43.232;27.972;2022-08-02T08:05:37;4.07;;;3.77;;
6031;SDS011;3044;43.232;27.972;2022-08-02T08:08:04;3.90;;;3.70;;
6031;SDS011;3044;43.232;27.972;2022-08-02T08:10:32;5.27;;;3.70;;
6031;SDS011;3044;43.232;27.972;2022-08-02T08:12:59;4.27;;;3.87;;
6031;SDS011;3044;43.232;27.972;2022-08-02T08:15:26;11.90;;;4.67;;
6031;SDS011;3044;43.232;27.972;2022-08-02T08:17:54;4.30;;;4.00;;
6031;SDS011;3044;43.232;27.972;2022-08-02T08:20:21;4.30;;;4.00;;
6031;SDS011;3044;43.232;27.972;2022-08-02T08:22:50;4.30;;;3.90;;
6031;SDS011;3044;43.232;27.972;2022-08-02T08:25:17;4.37;;;4.03;;
6031;SDS011;3044;43.232;27.972;2022-08-02T08:27:47;4.40;;;4.00;;
6031;SDS011;3044;43.232;27.972;2022-08-02T08:30:16;4.07;;;3.77;;
6031;SDS011;3044;43.232;27.972;2022-08-02T08:32:44;4.33;;;4.10;;
6031;SDS011;3044;43.232;27.972;2022-08-02T08:35:11;7.00;;;4.13;;
6031;SDS011;3044;43.232;27.972;2022-08-02T08:37:39;5.80;;;3.73;;
6031;SDS011;3044;43.232;27.972;2022-08-02T08:40:08;4.33;;;4.03;;
6031;SDS011;3044;43.232;27.972;2022-08-02T08:42:37;10.23;;;3.60;;
6031;SDS011;3044;43.232;27.972;2022-08-02T08:45:05;4.07;;;3.80;;
6031;SDS011;3044;43.232;27.972;2022-08-02T08:47:35;3.90;;;3.60;;
6031;SDS011;3044;43.232;27.972;2022-08-02T08:50:04;3.77;;;3.40;;
6031;SDS011;3044;43.232;27.972;2022-08-02T08:52:34;4.80;;;3.53;;
6031;SDS011;3044;43.232;27.972;2022-08-02T08:55:05;5.63;;;3.70;;
6031;SDS011;3044;43.232;27.972;2022-08-02T08:57:40;4.97;;;3.70;;
6031;SDS011;3044;43.232;27.972;2022-08-02T09:00:09;4.30;;;3.90;;
6031;SDS011;3044;43.232;27.972;2022-08-02T09:02:38;3.70;;;3.40;;
6031;SDS011;3044;43.232;27.972;2022-08-02T09:05:08;3.70;;;3.40;;
6031;SDS011;3044;43.232;27.972;2022-08-02T09:07:37;4.10;;;3.90;;
6031;SDS011;3044;43.232;27.972;2022-08-02T09:13:10;4.23;;;3.67;;
6031;SDS011;3044;43.232;27.972;2022-08-02T09:15:41;3.90;;;3.60;;
6031;SDS011;3044;43.232;27.972;2022-08-02T09:18:11;5.23;;;3.60;;
6031;SDS011;3044;43.232;27.972;2022-08-02T09:20:51;4.13;;;3.83;;
6031;SDS011;3044;43.232;27.972;2022-08-02T09:23:22;5.27;;;3.33;;
6031;SDS011;3044;43.232;27.972;2022-08-02T09:25:55;6.80;;;3.40;;
6031;SDS011;3044;43.232;27.972;2022-08-02T09:28:27;5.03;;;3.80;;
6031;SDS011;3044;43.232;27.972;2022-08-02T09:30:56;3.40;;;3.20;;
6031;SDS011;3044;43.232;27.972;2022-08-02T09:33:28;3.90;;;3.57;;
6031;SDS011;3044;43.232;27.972;2022-08-02T09:35:59;3.60;;;3.30;;
6031;SDS011;3044;43.232;27.972;2022-08-02T09:38:28;7.43;;;3.20;;
6031;SDS011;3044;43.232;27.972;2022-08-02T09:40:57;5.83;;;3.20;;
6031;SDS011;3044;43.232;27.972;2022-08-02T09:43:35;3.50;;;3.20;;
6031;SDS011;3044;43.232;27.972;2022-08-02T09:46:10;2.80;;;2.60;;
6031;SDS011;3044;43.232;27.972;2022-08-02T09:48:48;3.60;;;3.27;;
6031;SDS011;3044;43.232;27.972;2022-08-02T09:51:17;6.37;;;3.20;;
6031;SDS011;3044;43.232;27.972;2022-08-02T09:53:50;3.53;;;3.20;;
6031;SDS011;3044;43.232;27.972;2022-08-02T09:56:21;2.60;;;2.43;;
6031;SDS011;3044;43.232;27.972;2022-08-02T09:58:49;3.23;;;3.03;;
6031;SDS011;3044;43.232;27.972;2022-08-02T10:01:19;3.30;;;2.97;;
6031;SDS011;3044;43.232;27.972;2022-08-02T10:03:54;3.17;;;2.90;;
6031;SDS011;3044;43.232;27.972;2022-08-02T10:06:22;6.03;;;2.97;;
6031;SDS011;3044;43.232;27.972;2022-08-02T10:08:50;3.10;;;2.90;;
6031;SDS011;3044;43.232;27.972;2022-08-02T10:11:18;3.33;;;2.97;;
6031;SDS011;3044;43.232;27.972;2022-08-02T10:13:48;3.20;;;3.00;;
6031;SDS011;3044;43.232;27.972;2022-08-02T10:16:17;2.83;;;2.73;;
6031;SDS011;3044;43.232;27.972;2022-08-02T10:18:47;2.90;;;2.70;;
6031;SDS011;3044;43.232;27.972;2022-08-02T10:21:18;3.30;;;3.00;;
6031;SDS011;3044;43.232;27.972;2022-08-02T10:23:48;3.30;;;3.10;;
6031;SDS011;3044;43.232;27.972;2022-08-02T10:26:16;3.60;;;3.30;;
6031;SDS011;3044;43.232;27.972;2022-08-02T10:28:47;2.83;;;2.63;;
6031;SDS011;3044;43.232;27.972;2022-08-02T10:31:18;3.03;;;2.83;;
6031;SDS011;3044;43.232;27.972;2022-08-02T10:33:50;3.77;;;3.07;;
6031;SDS011;3044;43.232;27.972;2022-08-02T10:36:20;2.57;;;2.47;;
6031;SDS011;3044;43.232;27.972;2022-08-02T10:38:51;2.90;;;2.70;;
6031;SDS011;3044;43.232;27.972;2022-08-02T10:44:10;4.20;;;3.20;;
6031;SDS011;3044;43.232;27.972;2022-08-02T10:46:46;3.33;;;3.13;;
6031;SDS011;3044;43.232;27.972;2022-08-02T10:49:13;3.60;;;3.30;;
6031;SDS011;3044;43.232;27.972;2022-08-02T10:54:32;5.80;;;3.00;;
6031;SDS011;3044;43.232;27.972;2022-08-02T10:57:01;3.83;;;3.50;;
6031;SDS011;3044;43.232;27.972;2022-08-02T10:59:31;3.50;;;2.87;;
6031;SDS011;3044;43.232;27.972;2022-08-02T11:02:00;3.40;;;3.10;;
6031;SDS011;3044;43.232;27.972;2022-08-02T11:04:29;3.10;;;3.00;;
6031;SDS011;3044;43.232;27.972;2022-08-02T11:07:07;6.67;;;3.43;;
6031;SDS011;3044;43.232;27.972;2022-08-02T11:09:36;3.20;;;3.00;;
6031;SDS011;3044;43.232;27.972;2022-08-02T11:12:04;3.40;;;3.10;;
6031;SDS011;3044;43.232;27.972;2022-08-02T11:14:34;8.17;;;3.23;;
6031;SDS011;3044;43.232;27.972;2022-08-02T11:17:07;4.00;;;3.70;;
6031;SDS011;3044;43.232;27.972;2022-08-02T11:22:42;11.00;;;3.70;;
6031;SDS011;3044;43.232;27.972;2022-08-02T11:28:08;4.17;;;3.83;;
6031;SDS011;3044;43.232;27.972;2022-08-02T11:30:38;5.87;;;3.53;;
6031;SDS011;3044;43.232;27.972;2022-08-02T11:33:06;5.30;;;4.00;;
6031;SDS011;3044;43.232;27.972;2022-08-02T11:35:33;11.90;;;4.00;;
6031;SDS011;3044;43.232;27.972;2022-08-02T11:38:11;4.70;;;4.23;;
6031;SDS011;3044;43.232;27.972;2022-08-02T11:40:40;8.10;;;3.90;;
6031;SDS011;3044;43.232;27.972;2022-08-02T11:43:20;7.00;;;4.67;;
6031;SDS011;3044;43.232;27.972;2022-08-02T11:45:49;6.00;;;4.20;;
6031;SDS011;3044;43.232;27.972;2022-08-02T11:48:30;4.80;;;4.50;;
6031;SDS011;3044;43.232;27.972;2022-08-02T11:51:05;6.33;;;3.90;;
6031;SDS011;3044;43.232;27.972;2022-08-02T11:53:44;4.23;;;3.90;;
6031;SDS011;3044;43.232;27.972;2022-08-02T11:56:12;9.63;;;4.23;;
6031;SDS011;3044;43.232;27.972;2022-08-02T11:58:41;4.20;;;3.90;;
6031;SDS011;3044;43.232;27.972;2022-08-02T12:01:28;4.10;;;3.90;;
6031;SDS011;3044;43.232;27.972;2022-08-02T12:03:56;6.60;;;4.10;;
6031;SDS011;3044;43.232;27.972;2022-08-02T12:06:25;5.93;;;3.60;;
6031;SDS011;3044;43.232;27.972;2022-08-02T12:09:03;3.90;;;3.60;;
6031;SDS011;3044;43.232;27.972;2022-08-02T12:11:31;4.27;;;3.87;;
6031;SDS011;3044;43.232;27.972;2022-08-02T12:13:59;4.60;;;4.20;;
6031;SDS011;3044;43.232;27.972;2022-08-02T12:16:33;3.77;;;3.53;;
6031;SDS011;3044;43.232;27.972;2022-08-02T12:19:18;5.30;;;3.50;;
6031;SDS011;3044;43.232;27.972;2022-08-02T12:21:47;8.93;;;4.37;;
6031;SDS011;3044;43.232;27.972;2022-08-02T12:24:25;6.73;;;3.70;;
6031;SDS011;3044;43.232;27.972;2022-08-02T12:26:53;4.77;;;4.37;;
6031;SDS011;3044;43.232;27.972;2022-08-02T12:29:30;5.90;;;4.20;;
6031;SDS011;3044;43.232;27.972;2022-08-02T12:32:00;4.50;;;3.77;;
6031;SDS011;3044;43.232;27.972;2022-08-02T12:34:28;4.23;;;3.83;;
6031;SDS011;3044;43.232;27.972;2022-08-02T12:36:58;4.57;;;3.80;;
6031;SDS011;3044;43.232;27.972;2022-08-02T12:39:37;3.70;;;3.50;;
6031;SDS011;3044;43.232;27.972;2022-08-02T12:42:06;4.80;;;3.30;;
6031;SDS011;3044;43.232;27.972;2022-08-02T12:44:35;4.10;;;3.70;;
6031;SDS011;3044;43.232;27.972;2022-08-02T12:47:06;4.00;;;3.70;;
6031;SDS011;3044;43.232;27.972;2022-08-02T12:49:34;5.17;;;3.70;;
6031;SDS011;3044;43.232;27.972;2022-08-02T12:52:16;10.50;;;4.20;;
6031;SDS011;3044;43.232;27.972;2022-08-02T12:54:44;11.80;;;3.87;;
6031;SDS011;3044;43.232;27.972;2022-08-02T12:57:13;10.90;;;3.67;;
6031;SDS011;3044;43.232;27.972;2022-08-02T12:59:42;4.20;;;3.63;;
6031;SDS011;3044;43.232;27.972;2022-08-02T13:02:16;3.90;;;3.50;;
6031;SDS011;3044;43.232;27.972;2022-08-02T13:04:43;3.57;;;3.27;;
6031;SDS011;3044;43.232;27.972;2022-08-02T13:07:11;4.30;;;3.30;;
6031;SDS011;3044;43.232;27.972;2022-08-02T13:09:39;5.80;;;3.50;;
6031;SDS011;3044;43.232;27.972;2022-08-02T13:12:09;6.87;;;4.00;;
6031;SDS011;3044;43.232;27.972;2022-08-02T13:14:36;3.87;;;3.53;;
6031;SDS011;3044;43.232;27.972;2022-08-02T13:17:04;4.07;;;3.63;;
6031;SDS011;3044;43.232;27.972;2022-08-02T13:19:33;4.23;;;3.80;;
6031;SDS011;3044;43.232;27.972;2022-08-02T13:22:01;4.17;;;3.20;;
6031;SDS011;3044;43.232;27.972;2022-08-02T13:24:28;5.30;;;2.90;;
6031;SDS011;3044;43.232;27.972;2022-08-02T13:26:55;9.87;;;3.40;;
6031;SDS011;3044;43.232;27.972;2022-08-02T13:29:22;7.27;;;2.93;;
6031;SDS011;3044;43.232;27.972;2022-08-02T13:31:51;3.03;;;2.83;;
6031;SDS011;3044;43.232;27.972;2022-08-02T13:34:18;3.33;;;3.13;;
6031;SDS011;3044;43.232;27.972;2022-08-02T13:36:47;5.23;;;3.50;;
6031;SDS011;3044;43.232;27.972;2022-08-02T13:39:14;4.77;;;3.10;;
6031;SDS011;3044;43.232;27.972;2022-08-02T13:41:42;4.20;;;3.17;;
6031;SDS011;3044;43.232;27.972;2022-08-02T13:44:09;3.80;;;3.50;;
6031;SDS011;3044;43.232;27.972;2022-08-02T13:46:36;6.17;;;3.40;;
6031;SDS011;3044;43.232;27.972;2022-08-02T13:49:04;4.57;;;2.47;;
6031;SDS011;3044;43.232;27.972;2022-08-02T13:51:31;11.60;;;3.00;;
6031;SDS011;3044;43.232;27.972;2022-08-02T13:54:00;3.57;;;3.27;;
6031;SDS011;3044;43.232;27.972;2022-08-02T13:56:27;5.40;;;3.17;;
6031;SDS011;3044;43.232;27.972;2022-08-02T13:58:54;5.23;;;3.13;;
6031;SDS011;3044;43.232;27.972;2022-08-02T14:01:23;3.90;;;3.60;;
6031;SDS011;3044;43.232;27.972;2022-08-02T14:03:50;4.17;;;2.80;;
6031;SDS011;3044;43.232;27.972;2022-08-02T14:06:18;4.10;;;2.50;;
6031;SDS011;3044;43.232;27.972;2022-08-02T14:08:45;4.40;;;3.30;;
6031;SDS011;3044;43.232;27.972;2022-08-02T14:11:14;5.63;;;3.33;;
6031;SDS011;3044;43.232;27.972;2022-08-02T14:13:41;6.13;;;3.20;;
6031;SDS011;3044;43.232;27.972;2022-08-02T14:16:08;3.47;;;3.17;;
6031;SDS011;3044;43.232;27.972;2022-08-02T14:18:36;7.07;;;3.30;;
6031;SDS011;3044;43.232;27.972;2022-08-02T14:21:03;4.93;;;3.20;;
6031;SDS011;3044;43.232;27.972;2022-08-02T14:23:30;3.40;;;3.20;;
6031;SDS011;3044;43.232;27.972;2022-08-02T14:25:57;4.07;;;3.00;;
6031;SDS011;3044;43.232;27.972;2022-08-02T14:28:26;4.73;;;3.60;;
6031;SDS011;3044;43.232;27.972;2022-08-02T14:30:53;3.23;;;3.00;;
6031;SDS011;3044;43.232;27.972;2022-08-02T14:33:20;6.70;;;4.47;;
6031;SDS011;3044;43.232;27.972;2022-08-02T14:35:47;4.47;;;3.73;;
6031;SDS011;3044;43.232;27.972;2022-08-02T14:38:14;4.67;;;4.37;;
6031;SDS011;3044;43.232;27.972;2022-08-02T14:40:43;4.20;;;3.90;;
6031;SDS011;3044;43.232;27.972;2022-08-02T14:43:10;4.30;;;3.90;;
6031;SDS011;3044;43.232;27.972;2022-08-02T14:46:00;5.00;;;3.70;;
6031;SDS011;3044;43.232;27.972;2022-08-02T14:48:28;6.60;;;4.47;;
6031;SDS011;3044;43.232;27.972;2022-08-02T14:50:55;6.77;;;4.93;;
6031;SDS011;3044;43.232;27.972;2022-08-02T14:53:22;4.87;;;4.43;;
6031;SDS011;3044;43.232;27.972;2022-08-02T14:55:49;4.67;;;4.37;;
6031;SDS011;3044;43.232;27.972;2022-08-02T14:58:16;4.30;;;4.00;;
6031;SDS011;3044;43.232;27.972;2022-08-02T15:00:43;4.60;;;4.30;;
6031;SDS011;3044;43.232;27.972;2022-08-02T15:03:12;4.67;;;4.23;;
6031;SDS011;3044;43.232;27.972;2022-08-02T15:05:40;6.13;;;5.40;;
6031;SDS011;3044;43.232;27.972;2022-08-02T15:08:07;7.47;;;5.80;;
6031;SDS011;3044;43.232;27.972;2022-08-02T15:10:34;8.40;;;4.33;;
6031;SDS011;3044;43.232;27.972;2022-08-02T15:13:01;4.73;;;4.43;;
6031;SDS011;3044;43.232;27.972;2022-08-02T15:15:28;4.67;;;4.17;;
6031;SDS011;3044;43.232;27.972;2022-08-02T15:17:55;6.40;;;4.83;;
6031;SDS011;3044;43.232;27.972;2022-08-02T15:20:24;8.10;;;5.30;;
6031;SDS011;3044;43.232;27.972;2022-08-02T15:22:51;13.70;;;5.40;;
6031;SDS011;3044;43.232;27.972;2022-08-02T15:25:18;7.70;;;5.27;;
6031;SDS011;3044;43.232;27.972;2022-08-02T15:27:46;9.03;;;4.70;;